createdAt,value
2019-06-15T00:02:30.740Z,100500.56
2019-06-15T00:05:01.950Z,100489.77
2019-06-15T00:07:35.576Z,100475.06
2019-06-15T00:10:06.905Z,100470.52
2019-06-15T00:12:38.159Z,100472.95
2019-06-15T00:15:10.420Z,100473.34
2019-06-15T00:17:41.723Z,100464.12
2019-06-15T00:20:13.225Z,100452.12
2019-06-15T00:22:44.473Z,100444.44
2019-06-15T00:25:15.875Z,100447.91
2019-06-15T00:27:47.126Z,100459.02
2019-06-15T00:30:19.002Z,100454.22
2019-06-15T00:32:50.275Z,100449.03
2019-06-15T00:35:21.479Z,100454.95
2019-06-15T00:37:52.678Z,100454.30
2019-06-15T00:40:24.385Z,100457.31
2019-06-15T00:42:55.633Z,100466.16
2019-06-15T00:45:26.888Z,100470.34
2019-06-15T00:47:58.143Z,100474.91
2019-06-15T00:50:29.435Z,100471.02
2019-06-15T00:53:00.711Z,100482.80
2019-06-15T00:55:31.986Z,100502.97
2019-06-15T00:58:03.357Z,100513.91
2019-06-15T01:00:34.687Z,100489.11
2019-06-15T01:03:05.978Z,100485.27
2019-06-15T01:05:37.269Z,100473.28
2019-06-15T01:08:08.495Z,100470.57
2019-06-15T01:10:39.828Z,100462.03
2019-06-15T01:13:11.098Z,100459.34
2019-06-15T01:15:42.320Z,100449.02
2019-06-15T01:18:13.745Z,100444.05
2019-06-15T01:20:45.015Z,100431.45
2019-06-15T01:23:16.200Z,100413.77
2019-06-15T01:25:47.470Z,100403.50
2019-06-15T01:28:18.728Z,100397.16
2019-06-15T01:30:50.121Z,100383.20
2019-06-15T01:33:21.466Z,100372.56
2019-06-15T01:35:52.740Z,100361.19
2019-06-15T01:38:23.943Z,100345.59
2019-06-15T01:40:55.187Z,100333.45
2019-06-15T01:43:26.442Z,100328.00
2019-06-15T01:45:57.786Z,100311.37
2019-06-15T01:48:29.128Z,100322.38
2019-06-15T01:51:00.376Z,100316.55
2019-06-15T01:53:31.638Z,100314.91
2019-06-15T01:56:02.907Z,100306.03
2019-06-15T01:58:34.149Z,100301.55
2019-06-15T02:01:05.773Z,100283.51
2019-06-15T02:03:37.198Z,100285.33
2019-06-15T02:06:08.414Z,100301.80
2019-06-15T02:08:39.602Z,100312.64
2019-06-15T02:11:10.914Z,100306.91
2019-06-15T02:13:42.164Z,100298.58
2019-06-15T02:16:13.309Z,100296.10
2019-06-15T02:18:44.632Z,100292.40
2019-06-15T02:21:15.869Z,100295.31
2019-06-15T02:23:51.932Z,100298.86
2019-06-15T02:26:23.160Z,100302.08
2019-06-15T02:28:54.464Z,100298.63
2019-06-15T02:31:25.751Z,100301.47
2019-06-15T02:33:56.994Z,100302.08
2019-06-15T02:36:28.362Z,100305.13
2019-06-15T02:38:59.654Z,100320.78
2019-06-15T02:41:31.013Z,100325.80
2019-06-15T02:44:02.434Z,100321.74
2019-06-15T02:46:33.715Z,100335.53
2019-06-15T02:49:04.972Z,100332.38
2019-06-15T02:51:36.325Z,100319.63
2019-06-15T02:54:07.654Z,100303.38
2019-06-15T02:56:38.886Z,100303.52
2019-06-15T02:59:10.167Z,100315.55
2019-06-15T03:01:41.380Z,100309.73
2019-06-15T03:04:12.673Z,100303.69
2019-06-15T03:06:44.423Z,100306.42
2019-06-15T03:09:16.091Z,100318.03
2019-06-15T03:11:47.485Z,100315.64
2019-06-15T03:14:18.785Z,100311.95
2019-06-15T03:16:50.073Z,100310.30
2019-06-15T03:19:21.286Z,100311.63
2019-06-15T03:21:52.487Z,100304.30
2019-06-15T03:24:23.897Z,100303.41
2019-06-15T03:26:55.223Z,100300.85
2019-06-15T03:29:26.463Z,100301.23
2019-06-15T03:31:57.727Z,100288.39
2019-06-15T03:34:29.018Z,100284.27
2019-06-15T03:37:00.262Z,100270.80
2019-06-15T03:39:31.404Z,100251.61
2019-06-15T03:42:02.680Z,100244.66
2019-06-15T03:44:33.963Z,100248.25
2019-06-15T03:47:05.254Z,100254.37
2019-06-15T03:49:36.546Z,100254.44
2019-06-15T03:52:07.796Z,100259.83
2019-06-15T03:54:39.119Z,100262.97
2019-06-15T03:57:10.307Z,100268.02
2019-06-15T03:59:41.547Z,100264.86
2019-06-15T04:02:12.853Z,100267.92
2019-06-15T04:04:44.112Z,100279.25
2019-06-15T04:07:15.401Z,100274.59
2019-06-15T04:09:47.058Z,100269.41
2019-06-15T04:12:18.437Z,100260.53
2019-06-15T04:14:56.879Z,100261.61
2019-06-15T04:17:28.226Z,100259.62
2019-06-15T04:19:59.489Z,100282.42
2019-06-15T04:22:30.746Z,100307.53
2019-06-15T04:25:02.488Z,100334.88
2019-06-15T04:27:33.920Z,100361.85
2019-06-15T04:30:05.385Z,100370.70
2019-06-15T04:32:36.688Z,100357.50
2019-06-15T04:35:09.943Z,100364.00
2019-06-15T04:37:41.283Z,100353.31
2019-06-15T04:40:12.819Z,100335.95
2019-06-15T04:42:44.105Z,100336.23
2019-06-15T04:45:15.694Z,100344.19
2019-06-15T04:47:46.985Z,100348.52
2019-06-15T04:50:18.384Z,100337.38
2019-06-15T04:52:49.625Z,100337.89
2019-06-15T04:55:20.951Z,100344.33
2019-06-15T04:57:52.250Z,100349.98
2019-06-15T05:00:23.719Z,100361.34
2019-06-15T05:02:55.065Z,100363.77
2019-06-15T05:05:26.360Z,100345.10
2019-06-15T05:07:57.654Z,100348.89
2019-06-15T05:10:28.925Z,100357.22
2019-06-15T05:13:00.198Z,100354.91
2019-06-15T05:15:31.491Z,100347.50
2019-06-15T05:18:02.908Z,100346.39
2019-06-15T05:20:34.158Z,100336.38
2019-06-15T05:23:05.457Z,100338.63
2019-06-15T05:25:37.347Z,100349.11
2019-06-15T05:28:08.592Z,100345.61
2019-06-15T05:30:39.809Z,100355.66
2019-06-15T05:33:11.118Z,100350.13
2019-06-15T05:35:42.370Z,100351.19
2019-06-15T05:38:14.104Z,100348.06
2019-06-15T05:40:45.304Z,100341.70
2019-06-15T05:43:16.657Z,100343.11
2019-06-15T05:45:47.959Z,100345.80
2019-06-15T05:48:19.307Z,100352.04
2019-06-15T05:50:50.634Z,100360.05
2019-06-15T05:53:21.873Z,100363.48
2019-06-15T05:55:53.210Z,100364.03
2019-06-15T05:58:24.367Z,100369.87
2019-06-15T06:00:56.615Z,100373.47
2019-06-15T06:03:27.891Z,100379.16
2019-06-15T06:05:59.119Z,100386.59
2019-06-15T06:08:30.395Z,100392.13
2019-06-15T06:11:01.715Z,100399.16
2019-06-15T06:13:33.035Z,100395.83
2019-06-15T06:16:04.389Z,100386.91
2019-06-15T06:18:36.090Z,100396.39
2019-06-15T06:21:07.428Z,100413.23
2019-06-15T06:23:38.776Z,100415.12
2019-06-15T06:26:10.022Z,100415.05
2019-06-15T06:28:56.301Z,100420.35
2019-06-15T06:31:21.049Z,100423.70
2019-06-15T06:33:52.304Z,100423.83
2019-06-15T06:36:23.550Z,100428.42
2019-06-15T06:38:54.795Z,100427.62
2019-06-15T06:41:26.016Z,100427.37
2019-06-15T06:43:57.493Z,100418.61
2019-06-15T06:46:28.779Z,100422.78
2019-06-15T06:49:00.092Z,100420.00
2019-06-15T06:51:31.346Z,100424.64
2019-06-15T06:54:02.626Z,100426.73
2019-06-15T06:56:35.958Z,100434.39
2019-06-15T06:59:07.306Z,100424.34
2019-06-15T07:01:38.603Z,100421.98
2019-06-15T07:04:11.554Z,100437.64
2019-06-15T07:06:42.852Z,100435.41
2019-06-15T07:09:14.188Z,100439.41
2019-06-15T07:11:49.263Z,100442.34
2019-06-15T07:14:23.339Z,100442.27
2019-06-15T07:16:54.929Z,100439.97
2019-06-15T07:19:27.033Z,100445.90
2019-06-15T07:21:58.504Z,100439.48
2019-06-15T07:24:30.376Z,100441.21
2019-06-15T07:27:01.621Z,100461.61
2019-06-15T07:29:32.947Z,100458.46
2019-06-15T07:32:04.173Z,100461.40
2019-06-15T07:34:35.431Z,100461.05
2019-06-15T07:37:06.644Z,100460.53
2019-06-15T07:39:37.862Z,100448.77
2019-06-15T07:42:09.176Z,100448.62
2019-06-15T07:44:40.475Z,100445.09
2019-06-15T07:47:11.685Z,100444.53
2019-06-15T07:49:43.060Z,100440.22
2019-06-15T07:52:14.292Z,100436.77
2019-06-15T07:54:45.698Z,100426.61
2019-06-15T07:57:16.974Z,100422.97
2019-06-15T07:59:48.279Z,100431.48
2019-06-15T08:02:19.604Z,100433.84
2019-06-15T08:04:50.852Z,100434.65
2019-06-15T08:07:22.405Z,100434.17
2019-06-15T08:09:53.740Z,100435.89
2019-06-15T08:12:25.050Z,100435.67
2019-06-15T08:14:56.405Z,100435.52
2019-06-15T08:17:27.701Z,100437.69
2019-06-15T08:20:35.105Z,100445.47
2019-06-15T08:23:06.359Z,100449.48
2019-06-15T08:25:37.652Z,100457.85
2019-06-15T08:28:08.933Z,100461.17
2019-06-15T08:30:44.810Z,100467.70
2019-06-15T08:33:16.050Z,100462.86
2019-06-15T08:35:47.445Z,100456.77
2019-06-15T08:38:18.939Z,100458.61
2019-06-15T08:40:50.262Z,100462.20
2019-06-15T08:43:21.393Z,100470.72
2019-06-15T08:45:52.715Z,100480.59
2019-06-15T08:48:31.063Z,100482.62
2019-06-15T08:51:02.288Z,100482.59
2019-06-15T08:53:36.285Z,100491.51
2019-06-15T08:56:07.578Z,100498.88
2019-06-15T08:59:02.506Z,100495.77
2019-06-15T09:01:33.754Z,100502.50
2019-06-15T09:04:05.236Z,100504.38
2019-06-15T09:06:55.873Z,100512.14
2019-06-15T09:09:29.281Z,100508.34
2019-06-15T09:12:02.832Z,100519.31
2019-06-15T09:14:50.125Z,100523.66
2019-06-15T09:17:21.499Z,100528.73
2019-06-15T09:19:53.018Z,100528.23
2019-06-15T09:22:24.441Z,100534.34
2019-06-15T09:24:55.751Z,100532.37
2019-06-15T09:27:26.936Z,100543.93
2019-06-15T09:29:58.203Z,100544.99
2019-06-15T09:32:29.492Z,100552.04
2019-06-15T09:35:11.698Z,100558.64
2019-06-15T09:37:43.740Z,100561.68
2019-06-15T09:40:20.815Z,100565.36
2019-06-15T09:42:52.505Z,100567.55
2019-06-15T09:45:23.875Z,100574.89
2019-06-15T09:47:55.128Z,100573.35
2019-06-15T09:50:28.988Z,100579.95
2019-06-15T09:53:00.287Z,100585.28
2019-06-15T09:56:42.803Z,100591.96
2019-06-15T09:59:25.875Z,100596.98
2019-06-15T10:01:51.501Z,100610.41
2019-06-15T10:04:22.938Z,100603.23
2019-06-15T10:07:15.628Z,100607.69
2019-06-15T10:09:53.707Z,100609.27
2019-06-15T10:12:42.539Z,100616.30
2019-06-15T10:15:18.069Z,100618.08
2019-06-15T10:17:53.152Z,100631.78
2019-06-15T10:20:44.391Z,100632.32
2019-06-15T10:23:23.548Z,100633.22
2019-06-15T10:26:16.759Z,100636.59
2019-06-15T10:29:00.792Z,100634.67
2019-06-15T10:31:39.226Z,100633.13
2019-06-15T10:34:12.396Z,100640.24
2019-06-15T10:36:54.199Z,100647.09
2019-06-15T10:39:28.989Z,100659.97
2019-06-15T10:42:16.110Z,100651.55
2019-06-15T10:44:50.350Z,100674.28
2019-06-15T10:47:22.009Z,100679.79
2019-06-15T10:49:54.985Z,100682.72
2019-06-15T10:52:27.460Z,100690.17
2019-06-15T10:55:00.473Z,100686.55
2019-06-15T10:57:32.160Z,100697.47
2019-06-15T11:00:03.759Z,100695.35
2019-06-15T11:02:35.109Z,100704.87
2019-06-15T11:05:16.388Z,100704.84
2019-06-15T11:07:52.754Z,100705.05
2019-06-15T11:10:50.701Z,100711.22
2019-06-15T11:13:29.380Z,100718.70
2019-06-15T11:16:01.197Z,100718.73
2019-06-15T11:18:33.179Z,100710.30
2019-06-15T11:21:04.613Z,100726.30
2019-06-15T11:23:36.010Z,100724.69
2019-06-15T11:26:07.670Z,100733.70
2019-06-15T11:28:39.131Z,100733.28
2019-06-15T11:31:10.367Z,100741.60
2019-06-15T11:33:41.794Z,100760.80
2019-06-15T11:36:13.084Z,100761.94
2019-06-15T11:38:44.358Z,100758.20
2019-06-15T11:41:15.646Z,100778.97
2019-06-15T11:43:46.936Z,100775.51
2019-06-15T11:46:18.226Z,100775.89
2019-06-15T11:48:49.559Z,100773.13
2019-06-15T11:51:20.850Z,100784.22
2019-06-15T11:53:52.127Z,100789.41
2019-06-15T11:56:23.447Z,100786.09
2019-06-15T11:58:54.689Z,100791.00
2019-06-15T12:01:25.951Z,100788.23
2019-06-15T12:03:57.207Z,100795.68
2019-06-15T12:06:28.637Z,100797.38
2019-06-15T12:08:59.899Z,100796.66
2019-06-15T12:11:31.195Z,100801.47
2019-06-15T12:14:02.482Z,100801.73
2019-06-15T12:16:33.741Z,100800.84
2019-06-15T12:19:14.824Z,100800.56
2019-06-15T12:21:46.100Z,100808.03
2019-06-15T12:24:17.360Z,100806.63
2019-06-15T12:26:48.679Z,100811.08
2019-06-15T12:29:21.620Z,100803.13
2019-06-15T12:31:52.977Z,100806.56
2019-06-15T12:34:24.250Z,100816.16
2019-06-15T12:36:56.844Z,100812.59
2019-06-15T12:39:28.209Z,100813.42
2019-06-15T12:42:02.666Z,100816.62
2019-06-15T12:44:37.499Z,100820.48
2019-06-15T12:47:08.758Z,100817.70
2019-06-15T12:49:40.027Z,100819.33
2019-06-15T12:52:11.376Z,100820.08
2019-06-15T12:54:42.633Z,100820.08
2019-06-15T12:57:16.644Z,100807.02
2019-06-15T12:59:48.120Z,100824.10
2019-06-15T13:02:19.639Z,100815.75
2019-06-15T13:04:50.884Z,100822.23
2019-06-15T13:07:22.235Z,100830.02
2019-06-15T13:09:53.452Z,100835.01
2019-06-15T13:12:24.772Z,100834.18
2019-06-15T13:14:56.056Z,100832.73
2019-06-15T13:17:27.336Z,100834.70
2019-06-15T13:19:58.615Z,100841.06
2019-06-15T13:22:29.926Z,100836.66
2019-06-15T13:25:01.210Z,100840.25
2019-06-15T13:27:32.441Z,100841.47
2019-06-15T13:30:03.590Z,100838.88
2019-06-15T13:32:34.904Z,100848.62
2019-06-15T13:35:06.602Z,100849.73
2019-06-15T13:37:42.098Z,100845.72
2019-06-15T13:40:10.797Z,100847.90
2019-06-15T13:42:42.561Z,100852.97
2019-06-15T13:45:14.611Z,100856.59
2019-06-15T13:47:45.992Z,100858.94
2019-06-15T13:50:20.030Z,100856.26
2019-06-15T13:52:56.613Z,100855.61
2019-06-15T13:55:27.946Z,100860.58
2019-06-15T13:57:59.214Z,100855.50
2019-06-15T14:00:30.756Z,100861.88
2019-06-15T14:03:02.134Z,100849.53
2019-06-15T14:05:33.467Z,100852.53
2019-06-15T14:08:05.344Z,100852.66
2019-06-15T14:10:37.874Z,100857.83
2019-06-15T14:13:21.377Z,100858.94
2019-06-15T14:15:48.452Z,100867.38
2019-06-15T14:18:28.647Z,100870.95
2019-06-15T14:21:01.076Z,100860.64
2019-06-15T14:23:32.377Z,100861.41
2019-06-15T14:26:03.644Z,100858.48
2019-06-15T14:28:34.899Z,100865.62
2019-06-15T14:31:06.267Z,100865.13
2019-06-15T14:33:37.530Z,100853.18
2019-06-15T14:36:08.965Z,100854.44
2019-06-15T14:38:40.723Z,100864.97
2019-06-15T14:41:12.131Z,100863.28
2019-06-15T14:43:43.378Z,100859.32
2019-06-15T14:46:15.266Z,100860.36
2019-06-15T14:48:49.046Z,100850.70
2019-06-15T14:51:28.261Z,100863.52
2019-06-15T14:54:01.847Z,100865.33
2019-06-15T14:56:33.187Z,100866.44
2019-06-15T14:59:05.664Z,100872.58
2019-06-15T15:01:36.957Z,100866.95
2019-06-15T15:04:08.127Z,100868.53
2019-06-15T15:06:39.388Z,100878.44
2019-06-15T15:09:10.534Z,100880.38
2019-06-15T15:11:41.823Z,100872.02
2019-06-15T15:14:20.335Z,100879.28
2019-06-15T15:16:51.332Z,100872.42
2019-06-15T15:19:49.556Z,100875.20
2019-06-15T15:22:21.917Z,100881.73
2019-06-15T15:24:55.959Z,100888.42
2019-06-15T15:27:27.257Z,100879.11
2019-06-15T15:29:58.694Z,100879.86
2019-06-15T15:32:31.624Z,100881.67
2019-06-15T15:35:02.919Z,100880.30
2019-06-15T15:37:40.644Z,100885.41
2019-06-15T15:40:16.664Z,100886.86
2019-06-15T15:42:52.200Z,100886.03
2019-06-15T15:45:26.957Z,100878.52
2019-06-15T15:48:08.777Z,100882.41
2019-06-15T15:50:40.162Z,100881.16
2019-06-15T15:53:14.388Z,100885.19
2019-06-15T15:55:58.082Z,100891.95
2019-06-15T15:58:46.891Z,100891.56
2019-06-15T16:01:17.342Z,100892.27
2019-06-15T16:03:49.176Z,100887.52
2019-06-15T16:06:21.962Z,100888.39
2019-06-15T16:09:11.254Z,100890.17
2019-06-15T16:11:46.309Z,100884.41
2019-06-15T16:14:37.760Z,100886.06
2019-06-15T16:17:09.112Z,100889.34
2019-06-15T16:19:40.572Z,100887.13
2019-06-15T16:23:28.338Z,100881.95
2019-06-15T16:26:00.028Z,100893.95
2019-06-15T16:28:36.647Z,100886.19
2019-06-15T16:31:13.149Z,100892.30
2019-06-15T16:33:46.312Z,100887.42
2019-06-15T16:36:16.928Z,100885.77
2019-06-15T16:38:52.434Z,100885.22
2019-06-15T16:41:25.787Z,100882.20
2019-06-15T16:43:56.926Z,100884.17
2019-06-15T16:46:36.726Z,100886.79
2019-06-15T16:49:26.905Z,100887.94
2019-06-15T16:52:02.973Z,100882.48
2019-06-15T16:54:40.356Z,100893.01
2019-06-15T16:57:17.257Z,100892.36
2019-06-15T16:59:56.772Z,100886.70
2019-06-15T17:02:29.593Z,100892.77
2019-06-15T17:05:00.960Z,100891.37
2019-06-15T17:20:19.455Z,100887.34
2019-06-15T17:23:16.362Z,100899.96
2019-06-15T17:25:59.965Z,100905.16
2019-06-15T17:28:48.671Z,100895.78
2019-06-15T17:31:39.880Z,100901.34
2019-06-15T17:34:21.545Z,100899.02
2019-06-15T17:39:56.376Z,100896.59
2019-06-15T17:42:37.789Z,100891.61
2019-06-15T17:45:20.030Z,100891.61
2019-06-15T17:47:56.877Z,100887.93
2019-06-15T17:50:38.664Z,100875.84
2019-06-15T17:53:13.039Z,100890.02
2019-06-15T17:56:26.833Z,100886.14
2019-06-15T17:59:02.889Z,100888.50
2019-06-15T18:02:02.862Z,100886.83
2019-06-15T18:04:43.639Z,100877.87
2019-06-15T18:10:56.392Z,100879.41
2019-06-15T18:17:28.429Z,100883.05
2019-06-15T18:20:03.342Z,100878.16
2019-06-15T18:22:38.045Z,100875.78
2019-06-15T18:25:21.840Z,100883.77
2019-06-15T18:28:08.316Z,100889.62
2019-06-15T18:30:40.005Z,100893.97
2019-06-15T18:33:16.295Z,100896.59
2019-06-15T18:35:47.959Z,100896.91
2019-06-15T18:38:20.147Z,100888.77
2019-06-15T18:40:51.348Z,100891.42
2019-06-15T18:43:22.615Z,100892.66
2019-06-15T18:45:56.771Z,100891.63
2019-06-15T18:48:28.144Z,100884.63
2019-06-15T18:50:59.495Z,100887.75
2019-06-15T18:53:31.225Z,100894.08
2019-06-15T18:56:02.490Z,100895.08
2019-06-15T18:58:33.820Z,100891.52
2019-06-15T19:01:06.947Z,100902.91
2019-06-15T19:03:37.995Z,100902.37
2019-06-15T19:06:09.324Z,100901.42
2019-06-15T19:09:59.493Z,100903.57
2019-06-15T19:12:38.525Z,100901.19
2019-06-15T19:15:12.993Z,100899.84
2019-06-15T19:17:46.328Z,100906.30
2019-06-15T19:20:26.311Z,100909.32
2019-06-15T19:22:59.431Z,100904.28
2019-06-15T19:25:41.199Z,100906.37
2019-06-15T19:28:22.738Z,100904.16
2019-06-15T19:31:16.122Z,100903.82
2019-06-15T19:34:16.237Z,100910.54
2019-06-15T19:36:46.825Z,100908.63
2019-06-15T19:39:46.156Z,100916.03
2019-06-15T19:42:30.733Z,100915.13
2019-06-15T19:45:07.724Z,100912.89
2019-06-15T19:47:46.840Z,100919.34
2019-06-15T19:50:36.217Z,100918.87
2019-06-15T19:53:14.165Z,100928.75
2019-06-15T19:55:48.232Z,100935.80
2019-06-15T19:58:19.544Z,100946.66
2019-06-15T20:00:50.870Z,100946.38
2019-06-15T20:03:30.155Z,100949.95
2019-06-15T20:06:06.196Z,100957.87
2019-06-15T20:08:36.911Z,100963.91
2019-06-15T20:11:08.245Z,100966.92
2019-06-15T20:14:36.843Z,100962.34
2019-06-15T20:17:08.239Z,100965.78
2019-06-15T20:19:40.477Z,100975.96
2019-06-15T20:22:11.722Z,100976.77
2019-06-15T20:24:47.389Z,100971.28
2019-06-15T20:27:18.786Z,100965.67
2019-06-15T20:29:51.115Z,100970.55
2019-06-15T20:32:22.516Z,100970.25
2019-06-15T20:34:53.855Z,100969.41
2019-06-15T20:37:26.300Z,100979.80
2019-06-15T20:39:57.599Z,100992.11
2019-06-15T20:42:28.833Z,101000.83
2019-06-15T20:45:02.427Z,101006.75
2019-06-15T20:47:52.759Z,101005.92
2019-06-15T20:50:28.125Z,100999.66
2019-06-15T20:52:56.959Z,101002.24
2019-06-15T20:55:28.247Z,101004.81
2019-06-15T20:57:59.531Z,100997.67
2019-06-15T21:00:30.833Z,100995.60
2019-06-15T21:03:01.972Z,100998.19
2019-06-15T21:05:38.030Z,101000.57
2019-06-15T21:08:06.869Z,100994.76
2019-06-15T21:10:49.195Z,101001.70
2019-06-15T21:13:26.210Z,101003.27
2019-06-15T21:15:56.991Z,101002.14
2019-06-15T21:18:28.411Z,101004.09
2019-06-15T21:20:59.714Z,100998.38
2019-06-15T21:23:30.931Z,101007.78
2019-06-15T21:26:02.299Z,101015.38
2019-06-15T21:28:33.600Z,101020.13
2019-06-15T21:31:04.910Z,101025.83
2019-06-15T21:33:36.267Z,101030.28
2019-06-15T21:36:07.798Z,101042.54
2019-06-15T21:38:39.078Z,101049.35
2019-06-15T21:41:10.461Z,101049.94
2019-06-15T21:43:41.799Z,101047.52
2019-06-15T21:46:32.770Z,101047.44
2019-06-15T21:49:07.047Z,101049.59
2019-06-15T21:51:42.588Z,101045.94
2019-06-15T21:54:15.865Z,101048.31
2019-06-15T21:56:47.120Z,101042.86
2019-06-15T21:59:36.968Z,101047.17
2019-06-15T22:02:42.669Z,101054.02
2019-06-15T22:05:17.579Z,101055.55
2019-06-15T22:07:56.627Z,101059.05
2019-06-15T22:10:29.828Z,101065.66
2019-06-15T22:13:03.522Z,101058.89
2019-06-15T22:15:39.949Z,101064.78
2019-06-15T22:18:11.541Z,101064.44
2019-06-15T22:20:59.586Z,101053.17
2019-06-15T22:23:36.438Z,101064.21
2019-06-15T22:26:08.693Z,101061.02
2019-06-15T22:28:40.063Z,101066.53
2019-06-15T22:31:12.749Z,101065.94
2019-06-15T22:33:47.070Z,101069.39
2019-06-15T22:36:24.690Z,101074.61
2019-06-15T22:38:50.374Z,101083.43
2019-06-15T22:41:21.617Z,101086.30
2019-06-15T22:43:52.952Z,101089.51
2019-06-15T22:46:26.247Z,101106.03
2019-06-15T22:48:57.188Z,101102.13
2019-06-15T22:51:28.423Z,101121.64
2019-06-15T22:53:59.661Z,101120.75
2019-06-15T22:56:30.952Z,101119.70
2019-06-15T22:59:02.249Z,101121.58
2019-06-15T23:01:33.533Z,101127.97
2019-06-15T23:04:06.629Z,101131.05
2019-06-15T23:06:41.418Z,101121.97
2019-06-15T23:09:10.615Z,101122.56
2019-06-15T23:11:41.860Z,101123.47
2019-06-15T23:14:13.068Z,101124.73
2019-06-15T23:16:47.256Z,101133.50
2019-06-15T23:19:17.519Z,101127.46
2019-06-15T23:21:48.674Z,101128.58
2019-06-15T23:24:19.957Z,101135.88
2019-06-15T23:26:51.245Z,101135.64
2019-06-15T23:29:22.617Z,101136.66
2019-06-15T23:31:57.014Z,101138.72
2019-06-15T23:34:27.233Z,101136.64
2019-06-15T23:37:00.936Z,101145.91
2019-06-15T23:39:32.354Z,101150.58
2019-06-15T23:42:06.006Z,101140.81
2019-06-15T23:44:36.649Z,101147.39
2019-06-15T23:47:07.993Z,101132.73
2019-06-15T23:49:39.238Z,101133.20
2019-06-15T23:52:10.495Z,101139.61
2019-06-15T23:54:41.776Z,101149.02
2019-06-15T23:57:12.968Z,101145.30
2019-06-15T23:59:46.447Z,101139.92
